sensor_id;sensor_type;location;lat;lon;timestamp;pressure;altitude;pressure_sealevel;temperature;humidity
65280;BME280;51878;55.748;48.742;2023-01-26T00:01:20;99550.16;;;-6.04;100.00
65280;BME280;51878;55.748;48.742;2023-01-26T00:03:48;99581.63;;;-5.84;100.00
65280;BME280;51878;55.748;48.742;2023-01-26T00:06:18;99635.72;;;-5.57;100.00
65280;BME280;51878;55.748;48.742;2023-01-26T00:08:51;99490.63;;;-6.43;100.00
65280;BME280;51878;55.748;48.742;2023-01-26T00:11:23;99571.22;;;-5.87;100.00
65280;BME280;51878;55.748;48.742;2023-01-26T00:13:54;99619.25;;;-5.63;100.00
65280;BME280;51878;55.748;48.742;2023-01-26T00:16:25;99631.88;;;-5.52;100.00
65280;BME280;51878;55.748;48.742;2023-01-26T00:18:52;99566.88;;;-5.88;100.00
65280;BME280;51878;55.748;48.742;2023-01-26T00:21:21;99589.44;;;-5.65;100.00
65280;BME280;51878;55.748;48.742;2023-01-26T00:23:49;99604.94;;;-5.58;100.00
65280;BME280;51878;55.748;48.742;2023-01-26T00:26:22;99554.47;;;-5.86;100.00
65280;BME280;51878;55.748;48.742;2023-01-26T00:28:51;99590.72;;;-5.56;100.00
65280;BME280;51878;55.748;48.742;2023-01-26T00:31:20;99555.47;;;-5.88;100.00
65280;BME280;51878;55.748;48.742;2023-01-26T00:33:48;99601.72;;;-5.64;100.00
65280;BME280;51878;55.748;48.742;2023-01-26T00:36:15;99582.00;;;-5.74;100.00
65280;BME280;51878;55.748;48.742;2023-01-26T00:38:43;99555.78;;;-5.77;100.00
65280;BME280;51878;55.748;48.742;2023-01-26T00:41:10;99549.25;;;-5.87;100.00
65280;BME280;51878;55.748;48.742;2023-01-26T00:44:00;99537.34;;;-5.94;100.00
65280;BME280;51878;55.748;48.742;2023-01-26T00:46:28;99542.44;;;-5.91;100.00
65280;BME280;51878;55.748;48.742;2023-01-26T00:48:55;99574.16;;;-5.75;100.00
65280;BME280;51878;55.748;48.742;2023-01-26T00:51:22;99422.94;;;-6.60;100.00
65280;BME280;51878;55.748;48.742;2023-01-26T00:53:49;99536.28;;;-6.08;100.00
65280;BME280;51878;55.748;48.742;2023-01-26T00:56:16;99572.91;;;-5.68;100.00
65280;BME280;51878;55.748;48.742;2023-01-26T00:58:43;99494.56;;;-6.17;100.00
65280;BME280;51878;55.748;48.742;2023-01-26T01:01:11;99555.06;;;-5.81;100.00
65280;BME280;51878;55.748;48.742;2023-01-26T01:03:38;99537.84;;;-5.88;100.00
65280;BME280;51878;55.748;48.742;2023-01-26T01:06:05;99547.59;;;-5.72;100.00
65280;BME280;51878;55.748;48.742;2023-01-26T01:08:32;99370.88;;;-6.72;100.00
65280;BME280;51878;55.748;48.742;2023-01-26T01:11:17;99523.31;;;-5.79;100.00
65280;BME280;51878;55.748;48.742;2023-01-26T01:13:44;99516.16;;;-5.77;100.00
65280;BME280;51878;55.748;48.742;2023-01-26T01:16:14;99464.97;;;-6.06;100.00
65280;BME280;51878;55.748;48.742;2023-01-26T01:18:41;99515.19;;;-5.92;100.00
65280;BME280;51878;55.748;48.742;2023-01-26T01:21:14;99503.53;;;-5.88;100.00
65280;BME280;51878;55.748;48.742;2023-01-26T01:23:42;99458.84;;;-6.24;100.00
65280;BME280;51878;55.748;48.742;2023-01-26T01:26:09;99513.06;;;-5.85;100.00
65280;BME280;51878;55.748;48.742;2023-01-26T01:28:37;99428.22;;;-6.27;100.00
65280;BME280;51878;55.748;48.742;2023-01-26T01:31:06;99510.88;;;-5.93;100.00
65280;BME280;51878;55.748;48.742;2023-01-26T01:33:33;99435.53;;;-6.32;100.00
65280;BME280;51878;55.748;48.742;2023-01-26T01:36:06;99517.75;;;-5.90;100.00
65280;BME280;51878;55.748;48.742;2023-01-26T01:38:33;99480.56;;;-6.01;100.00
65280;BME280;51878;55.748;48.742;2023-01-26T01:41:00;99507.25;;;-6.08;100.00
65280;BME280;51878;55.748;48.742;2023-01-26T01:43:28;99485.84;;;-6.01;100.00
65280;BME280;51878;55.748;48.742;2023-01-26T01:45:55;99502.44;;;-5.99;100.00
65280;BME280;51878;55.748;48.742;2023-01-26T01:51:10;99505.16;;;-6.01;100.00
65280;BME280;51878;55.748;48.742;2023-01-26T01:53:42;99429.13;;;-6.43;100.00
65280;BME280;51878;55.748;48.742;2023-01-26T01:56:14;99452.91;;;-6.28;100.00
65280;BME280;51878;55.748;48.742;2023-01-26T01:58:45;99464.31;;;-6.27;100.00
65280;BME280;51878;55.748;48.742;2023-01-26T02:01:12;99522.09;;;-6.05;100.00
65280;BME280;51878;55.748;48.742;2023-01-26T02:03:40;99481.22;;;-6.31;100.00
65280;BME280;51878;55.748;48.742;2023-01-26T02:09:00;99413.16;;;-6.58;100.00
65280;BME280;51878;55.748;48.742;2023-01-26T02:13:59;99482.84;;;-6.29;100.00
65280;BME280;51878;55.748;48.742;2023-01-26T02:16:28;99506.03;;;-6.35;100.00
65280;BME280;51878;55.748;48.742;2023-01-26T02:18:55;99431.00;;;-6.63;100.00
65280;BME280;51878;55.748;48.742;2023-01-26T02:21:22;99438.63;;;-6.57;100.00
65280;BME280;51878;55.748;48.742;2023-01-26T02:26:34;99480.75;;;-6.39;100.00
65280;BME280;51878;55.748;48.742;2023-01-26T02:29:06;99396.53;;;-6.93;100.00
65280;BME280;51878;55.748;48.742;2023-01-26T02:31:35;99489.38;;;-6.36;100.00
65280;BME280;51878;55.748;48.742;2023-01-26T02:34:02;99478.53;;;-6.47;100.00
65280;BME280;51878;55.748;48.742;2023-01-26T02:36:31;99468.28;;;-6.53;100.00
65280;BME280;51878;55.748;48.742;2023-01-26T02:39:17;99477.38;;;-6.41;100.00
65280;BME280;51878;55.748;48.742;2023-01-26T02:41:46;99407.53;;;-6.85;100.00
65280;BME280;51878;55.748;48.742;2023-01-26T02:44:37;99412.50;;;-6.79;100.00
65280;BME280;51878;55.748;48.742;2023-01-26T02:47:16;99336.41;;;-7.37;100.00
65280;BME280;51878;55.748;48.742;2023-01-26T02:49:44;99416.81;;;-6.78;100.00
65280;BME280;51878;55.748;48.742;2023-01-26T02:52:21;99417.38;;;-6.71;100.00
65280;BME280;51878;55.748;48.742;2023-01-26T02:54:49;99454.09;;;-6.68;100.00
65280;BME280;51878;55.748;48.742;2023-01-26T02:57:35;99336.88;;;-7.29;100.00
65280;BME280;51878;55.748;48.742;2023-01-26T03:00:05;99373.28;;;-7.20;100.00
65280;BME280;51878;55.748;48.742;2023-01-26T03:02:32;99386.75;;;-6.91;100.00
65280;BME280;51878;55.748;48.742;2023-01-26T03:04:59;99385.69;;;-7.04;100.00
65280;BME280;51878;55.748;48.742;2023-01-26T03:07:28;99267.41;;;-7.79;100.00
65280;BME280;51878;55.748;48.742;2023-01-26T03:09:55;99386.22;;;-7.15;100.00
65280;BME280;51878;55.748;48.742;2023-01-26T03:12:25;99244.03;;;-8.02;100.00
65280;BME280;51878;55.748;48.742;2023-01-26T03:14:52;99417.38;;;-7.06;100.00
65280;BME280;51878;55.748;48.742;2023-01-26T03:17:38;99341.34;;;-7.49;100.00
65280;BME280;51878;55.748;48.742;2023-01-26T03:20:05;99436.66;;;-7.06;100.00
65280;BME280;51878;55.748;48.742;2023-01-26T03:23:08;99432.84;;;-7.17;100.00
65280;BME280;51878;55.748;48.742;2023-01-26T03:25:53;99374.03;;;-7.53;100.00
65280;BME280;51878;55.748;48.742;2023-01-26T03:28:39;99417.72;;;-7.31;100.00
65280;BME280;51878;55.748;48.742;2023-01-26T03:31:06;99352.84;;;-7.69;100.00
65280;BME280;51878;55.748;48.742;2023-01-26T03:33:33;99363.50;;;-7.72;100.00
65280;BME280;51878;55.748;48.742;2023-01-26T03:36:00;99390.31;;;-7.63;100.00
65280;BME280;51878;55.748;48.742;2023-01-26T03:38:27;99366.47;;;-7.78;100.00
65280;BME280;51878;55.748;48.742;2023-01-26T03:40:57;99402.91;;;-7.70;100.00
65280;BME280;51878;55.748;48.742;2023-01-26T03:43:42;99303.81;;;-8.25;100.00
65280;BME280;51878;55.748;48.742;2023-01-26T03:46:28;99383.88;;;-7.75;100.00
65280;BME280;51878;55.748;48.742;2023-01-26T03:49:13;99395.69;;;-7.84;100.00
65280;BME280;51878;55.748;48.742;2023-01-26T03:51:59;99396.75;;;-7.88;100.00
65280;BME280;51878;55.748;48.742;2023-01-26T03:54:44;99319.72;;;-8.28;100.00
65280;BME280;51878;55.748;48.742;2023-01-26T03:57:30;99348.94;;;-8.15;100.00
65280;BME280;51878;55.748;48.742;2023-01-26T03:59:57;99347.03;;;-8.31;100.00
65280;BME280;51878;55.748;48.742;2023-01-26T04:02:24;99370.97;;;-8.18;100.00
65280;BME280;51878;55.748;48.742;2023-01-26T04:05:09;99369.75;;;-8.29;100.00
65280;BME280;51878;55.748;48.742;2023-01-26T04:08:00;99379.97;;;-8.23;100.00
65280;BME280;51878;55.748;48.742;2023-01-26T04:10:46;99323.94;;;-8.62;100.00
65280;BME280;51878;55.748;48.742;2023-01-26T04:13:13;99411.03;;;-8.13;100.00
65280;BME280;51878;55.748;48.742;2023-01-26T04:16:00;99372.63;;;-8.53;100.00
65280;BME280;51878;55.748;48.742;2023-01-26T04:18:45;99293.88;;;-8.94;100.00
65280;BME280;51878;55.748;48.742;2023-01-26T04:21:31;99406.28;;;-8.23;100.00
65280;BME280;51878;55.748;48.742;2023-01-26T04:24:04;99415.72;;;-8.19;100.00
65280;BME280;51878;55.748;48.742;2023-01-26T04:26:35;99401.88;;;-8.23;100.00
65280;BME280;51878;55.748;48.742;2023-01-26T04:29:04;99390.19;;;-8.36;100.00
65280;BME280;51878;55.748;48.742;2023-01-26T04:31:32;99380.34;;;-8.31;100.00
65280;BME280;51878;55.748;48.742;2023-01-26T04:34:00;99382.97;;;-8.31;100.00
65280;BME280;51878;55.748;48.742;2023-01-26T04:36:27;99313.56;;;-8.84;100.00
65280;BME280;51878;55.748;48.742;2023-01-26T04:38:55;99407.28;;;-8.26;100.00
65280;BME280;51878;55.748;48.742;2023-01-26T04:41:22;99414.53;;;-8.31;100.00
65280;BME280;51878;55.748;48.742;2023-01-26T04:43:50;99380.06;;;-8.44;100.00
65280;BME280;51878;55.748;48.742;2023-01-26T04:46:23;99384.59;;;-8.47;100.00
65280;BME280;51878;55.748;48.742;2023-01-26T04:49:28;99402.34;;;-8.34;100.00
65280;BME280;51878;55.748;48.742;2023-01-26T04:52:03;99405.50;;;-8.25;100.00
65280;BME280;51878;55.748;48.742;2023-01-26T04:54:30;99417.16;;;-8.31;100.00
65280;BME280;51878;55.748;48.742;2023-01-26T04:56:57;99340.69;;;-8.64;100.00
65280;BME280;51878;55.748;48.742;2023-01-26T04:59:24;99405.56;;;-8.27;100.00
65280;BME280;51878;55.748;48.742;2023-01-26T05:01:51;99416.94;;;-8.26;100.00
65280;BME280;51878;55.748;48.742;2023-01-26T05:04:18;99350.75;;;-8.74;100.00
65280;BME280;51878;55.748;48.742;2023-01-26T05:06:46;99281.84;;;-9.00;100.00
65280;BME280;51878;55.748;48.742;2023-01-26T05:09:13;99341.34;;;-8.59;100.00
65280;BME280;51878;55.748;48.742;2023-01-26T05:11:42;99397.09;;;-8.34;100.00
65280;BME280;51878;55.748;48.742;2023-01-26T05:14:25;99404.94;;;-8.13;100.00
65280;BME280;51878;55.748;48.742;2023-01-26T05:16:52;99361.78;;;-8.28;100.00
65280;BME280;51878;55.748;48.742;2023-01-26T05:19:19;99388.66;;;-8.02;100.00
65280;BME280;51878;55.748;48.742;2023-01-26T05:21:49;99394.34;;;-7.93;100.00
65280;BME280;51878;55.748;48.742;2023-01-26T05:24:40;99398.16;;;-7.81;100.00
65280;BME280;51878;55.748;48.742;2023-01-26T05:27:07;99357.34;;;-7.90;100.00
65280;BME280;51878;55.748;48.742;2023-01-26T05:29:50;99415.41;;;-7.20;100.00
65280;BME280;51878;55.748;48.742;2023-01-26T05:32:18;99393.75;;;-7.25;100.00
65280;BME280;51878;55.748;48.742;2023-01-26T05:34:45;99388.47;;;-7.25;100.00
65280;BME280;51878;55.748;48.742;2023-01-26T05:37:12;99381.31;;;-7.06;100.00
65280;BME280;51878;55.748;48.742;2023-01-26T05:39:40;99354.28;;;-7.44;100.00
65280;BME280;51878;55.748;48.742;2023-01-26T05:42:08;99370.72;;;-7.21;100.00
65280;BME280;51878;55.748;48.742;2023-01-26T05:44:36;99278.72;;;-8.13;100.00
65280;BME280;51878;55.748;48.742;2023-01-26T05:47:03;99300.94;;;-8.01;100.00
65280;BME280;51878;55.748;48.742;2023-01-26T05:49:30;99351.97;;;-7.86;100.00
65280;BME280;51878;55.748;48.742;2023-01-26T05:51:57;99367.16;;;-7.74;100.00
65280;BME280;51878;55.748;48.742;2023-01-26T05:54:24;99335.91;;;-7.99;100.00
65280;BME280;51878;55.748;48.742;2023-01-26T05:56:51;99360.31;;;-7.78;100.00
65280;BME280;51878;55.748;48.742;2023-01-26T05:59:19;99411.00;;;-7.19;100.00
65280;BME280;51878;55.748;48.742;2023-01-26T06:01:46;99332.06;;;-7.03;99.16
65280;BME280;51878;55.748;48.742;2023-01-26T06:04:13;99408.06;;;-6.28;96.63
65280;BME280;51878;55.748;48.742;2023-01-26T06:06:40;99388.91;;;-6.31;94.17
65280;BME280;51878;55.748;48.742;2023-01-26T06:09:07;99390.97;;;-6.20;93.15
65280;BME280;51878;55.748;48.742;2023-01-26T06:11:34;99366.38;;;-6.37;92.32
65280;BME280;51878;55.748;48.742;2023-01-26T06:14:01;99424.19;;;-6.00;92.03
65280;BME280;51878;55.748;48.742;2023-01-26T06:16:28;99388.16;;;-6.17;91.53
65280;BME280;51878;55.748;48.742;2023-01-26T06:18:55;99404.81;;;-6.33;92.53
65280;BME280;51878;55.748;48.742;2023-01-26T06:21:22;99405.31;;;-6.42;93.87
65280;BME280;51878;55.748;48.742;2023-01-26T06:23:49;99414.50;;;-6.67;94.58
65280;BME280;51878;55.748;48.742;2023-01-26T06:26:16;99377.13;;;-6.92;95.36
65280;BME280;51878;55.748;48.742;2023-01-26T06:28:43;99417.91;;;-6.65;96.02
65280;BME280;51878;55.748;48.742;2023-01-26T06:31:20;99392.94;;;-6.92;96.25
65280;BME280;51878;55.748;48.742;2023-01-26T06:33:50;99388.00;;;-6.98;96.89
65280;BME280;51878;55.748;48.742;2023-01-26T06:36:22;99403.47;;;-6.92;97.10
65280;BME280;51878;55.748;48.742;2023-01-26T06:38:53;99384.44;;;-6.80;96.99
65280;BME280;51878;55.748;48.742;2023-01-26T06:41:22;99402.41;;;-6.71;97.25
65280;BME280;51878;55.748;48.742;2023-01-26T06:43:49;99393.19;;;-6.79;96.57
65280;BME280;51878;55.748;48.742;2023-01-26T06:46:16;99393.41;;;-6.67;96.75
65280;BME280;51878;55.748;48.742;2023-01-26T06:48:45;99344.97;;;-6.81;95.71
65280;BME280;51878;55.748;48.742;2023-01-26T06:53:46;99332.31;;;-6.75;95.45
65280;BME280;51878;55.748;48.742;2023-01-26T06:56:13;99320.06;;;-6.58;94.08
65280;BME280;51878;55.748;48.742;2023-01-26T06:58:40;99385.66;;;-6.03;92.95
65280;BME280;51878;55.748;48.742;2023-01-26T07:01:12;99268.81;;;-6.70;92.01
65280;BME280;51878;55.748;48.742;2023-01-26T07:03:40;99369.38;;;-6.11;92.04
65280;BME280;51878;55.748;48.742;2023-01-26T07:06:07;99297.81;;;-6.70;92.86
65280;BME280;51878;55.748;48.742;2023-01-26T07:08:38;99345.09;;;-6.34;92.54
65280;BME280;51878;55.748;48.742;2023-01-26T07:11:05;99251.44;;;-6.90;92.89
65280;BME280;51878;55.748;48.742;2023-01-26T07:13:34;99392.09;;;-6.09;92.75
65280;BME280;51878;55.748;48.742;2023-01-26T07:16:04;99368.44;;;-6.10;92.84
65280;BME280;51878;55.748;48.742;2023-01-26T07:18:34;99386.63;;;-5.90;92.32
65280;BME280;51878;55.748;48.742;2023-01-26T07:21:06;99376.00;;;-5.88;91.71
65280;BME280;51878;55.748;48.742;2023-01-26T07:23:33;99346.13;;;-6.05;91.12
65280;BME280;51878;55.748;48.742;2023-01-26T07:26:01;99382.72;;;-5.67;90.80
65280;BME280;51878;55.748;48.742;2023-01-26T07:28:35;99364.44;;;-5.86;90.08
65280;BME280;51878;55.748;48.742;2023-01-26T07:31:06;99284.53;;;-6.19;90.24
65280;BME280;51878;55.748;48.742;2023-01-26T07:33:34;99241.88;;;-6.59;90.53
65280;BME280;51878;55.748;48.742;2023-01-26T07:36:01;99379.56;;;-5.73;91.00
65280;BME280;51878;55.748;48.742;2023-01-26T07:38:30;99357.69;;;-5.75;90.88
65280;BME280;51878;55.748;48.742;2023-01-26T07:40:58;99363.22;;;-5.80;91.33
65280;BME280;51878;55.748;48.742;2023-01-26T07:43:25;99277.22;;;-6.30;91.34
65280;BME280;51878;55.748;48.742;2023-01-26T07:45:53;99376.44;;;-5.64;90.69
65280;BME280;51878;55.748;48.742;2023-01-26T07:48:22;99345.09;;;-5.86;90.80
65280;BME280;51878;55.748;48.742;2023-01-26T07:50:49;99371.06;;;-5.47;90.10
65280;BME280;51878;55.748;48.742;2023-01-26T07:53:17;99380.34;;;-5.25;89.60
65280;BME280;51878;55.748;48.742;2023-01-26T07:55:45;99367.91;;;-5.23;89.27
65280;BME280;51878;55.748;48.742;2023-01-26T07:58:12;99301.31;;;-5.74;88.95
65280;BME280;51878;55.748;48.742;2023-01-26T08:00:40;99327.56;;;-5.41;88.53
65280;BME280;51878;55.748;48.742;2023-01-26T08:03:07;99299.56;;;-5.29;87.43
65280;BME280;51878;55.748;48.742;2023-01-26T08:05:36;99344.13;;;-4.79;86.70
65280;BME280;51878;55.748;48.742;2023-01-26T08:08:04;99342.72;;;-4.70;86.54
65280;BME280;51878;55.748;48.742;2023-01-26T08:10:31;99301.06;;;-4.95;85.52
65280;BME280;51878;55.748;48.742;2023-01-26T08:12:59;99281.63;;;-5.08;85.88
65280;BME280;51878;55.748;48.742;2023-01-26T08:15:29;99339.88;;;-4.95;86.96
65280;BME280;51878;55.748;48.742;2023-01-26T08:17:56;99216.00;;;-5.75;87.40
65280;BME280;51878;55.748;48.742;2023-01-26T08:20:23;99332.88;;;-4.96;87.30
65280;BME280;51878;55.748;48.742;2023-01-26T08:22:50;99349.53;;;-4.66;87.29
65280;BME280;51878;55.748;48.742;2023-01-26T08:25:20;99318.28;;;-4.30;85.05
65280;BME280;51878;55.748;48.742;2023-01-26T08:27:47;99256.97;;;-4.51;83.49
65280;BME280;51878;55.748;48.742;2023-01-26T08:30:14;99306.81;;;-3.75;81.34
65280;BME280;51878;55.748;48.742;2023-01-26T08:32:41;99276.13;;;-3.65;80.11
65280;BME280;51878;55.748;48.742;2023-01-26T08:35:13;99325.53;;;-3.11;78.01
65280;BME280;51878;55.748;48.742;2023-01-26T08:37:41;99327.13;;;-3.21;78.65
65280;BME280;51878;55.748;48.742;2023-01-26T08:40:08;99317.66;;;-3.38;79.50
65280;BME280;51878;55.748;48.742;2023-01-26T08:42:36;99316.72;;;-3.24;78.80
65280;BME280;51878;55.748;48.742;2023-01-26T08:45:03;99287.91;;;-3.56;79.12
65280;BME280;51878;55.748;48.742;2023-01-26T08:47:30;99331.09;;;-3.41;79.55
65280;BME280;51878;55.748;48.742;2023-01-26T08:49:57;99322.31;;;-3.69;81.41
65280;BME280;51878;55.748;48.742;2023-01-26T08:52:24;99297.81;;;-4.00;82.20
65280;BME280;51878;55.748;48.742;2023-01-26T08:54:54;99304.75;;;-4.11;82.81
65280;BME280;51878;55.748;48.742;2023-01-26T08:57:20;99313.44;;;-4.09;84.72
65280;BME280;51878;55.748;48.742;2023-01-26T08:59:48;99244.34;;;-4.61;85.25
65280;BME280;51878;55.748;48.742;2023-01-26T09:02:14;99282.59;;;-4.52;86.26
65280;BME280;51878;55.748;48.742;2023-01-26T09:04:42;99262.28;;;-4.51;86.90
65280;BME280;51878;55.748;48.742;2023-01-26T09:07:09;99303.59;;;-4.22;87.48
65280;BME280;51878;55.748;48.742;2023-01-26T09:09:38;99288.78;;;-4.24;87.11
65280;BME280;51878;55.748;48.742;2023-01-26T09:12:05;99258.00;;;-4.40;87.40
65280;BME280;51878;55.748;48.742;2023-01-26T09:14:32;99322.88;;;-4.05;87.22
65280;BME280;51878;55.748;48.742;2023-01-26T09:16:59;99292.94;;;-4.20;88.02
65280;BME280;51878;55.748;48.742;2023-01-26T09:19:26;99254.50;;;-4.40;87.90
65280;BME280;51878;55.748;48.742;2023-01-26T09:21:56;99250.44;;;-4.31;87.82
65280;BME280;51878;55.748;48.742;2023-01-26T09:24:23;99249.84;;;-4.37;88.30
65280;BME280;51878;55.748;48.742;2023-01-26T09:26:51;99200.94;;;-4.44;87.77
65280;BME280;51878;55.748;48.742;2023-01-26T09:29:18;99198.13;;;-4.41;87.71
65280;BME280;51878;55.748;48.742;2023-01-26T09:31:45;99301.06;;;-3.82;88.39
65280;BME280;51878;55.748;48.742;2023-01-26T09:34:13;99250.28;;;-4.16;89.02
65280;BME280;51878;55.748;48.742;2023-01-26T09:36:40;99283.09;;;-3.64;87.99
65280;BME280;51878;55.748;48.742;2023-01-26T09:39:07;99214.13;;;-4.02;88.17
65280;BME280;51878;55.748;48.742;2023-01-26T09:44:26;99264.88;;;-3.68;87.61
65280;BME280;51878;55.748;48.742;2023-01-26T09:49:50;99294.72;;;-3.52;87.73
65280;BME280;51878;55.748;48.742;2023-01-26T09:52:27;99234.84;;;-3.55;86.99
65280;BME280;51878;55.748;48.742;2023-01-26T09:54:58;99283.44;;;-3.16;86.85
65280;BME280;51878;55.748;48.742;2023-01-26T10:00:11;99220.53;;;-3.26;85.00
65280;BME280;51878;55.748;48.742;2023-01-26T10:07:58;99259.44;;;-3.40;86.51
65280;BME280;51878;55.748;48.742;2023-01-26T10:10:29;99233.75;;;-3.65;87.53
65280;BME280;51878;55.748;48.742;2023-01-26T10:12:58;99223.47;;;-3.69;88.30
65280;BME280;51878;55.748;48.742;2023-01-26T10:15:37;99279.75;;;-3.53;88.19
65280;BME280;51878;55.748;48.742;2023-01-26T10:18:07;99289.28;;;-3.63;90.10
65280;BME280;51878;55.748;48.742;2023-01-26T10:20:50;99274.63;;;-3.69;90.55
65280;BME280;51878;55.748;48.742;2023-01-26T10:23:26;99279.28;;;-3.72;90.62
65280;BME280;51878;55.748;48.742;2023-01-26T10:26:01;99267.44;;;-3.94;90.69
65280;BME280;51878;55.748;48.742;2023-01-26T10:28:34;99262.53;;;-4.00;90.93
65280;BME280;51878;55.748;48.742;2023-01-26T10:31:03;99263.97;;;-3.95;91.48
65280;BME280;51878;55.748;48.742;2023-01-26T10:33:34;99266.31;;;-3.90;91.85
65280;BME280;51878;55.748;48.742;2023-01-26T10:36:04;99272.34;;;-3.88;92.01
65280;BME280;51878;55.748;48.742;2023-01-26T10:41:04;99289.22;;;-3.76;91.17
65280;BME280;51878;55.748;48.742;2023-01-26T10:43:35;99211.66;;;-4.18;91.68
65280;BME280;51878;55.748;48.742;2023-01-26T10:46:03;99265.13;;;-3.86;91.70
65280;BME280;51878;55.748;48.742;2023-01-26T10:48:31;99250.53;;;-4.06;91.47
65280;BME280;51878;55.748;48.742;2023-01-26T10:51:14;99180.78;;;-4.32;91.90
65280;BME280;51878;55.748;48.742;2023-01-26T10:53:41;99284.03;;;-3.78;91.79
65280;BME280;51878;55.748;48.742;2023-01-26T10:56:12;99237.72;;;-4.12;91.51
65280;BME280;51878;55.748;48.742;2023-01-26T10:58:59;99262.47;;;-3.86;92.14
65280;BME280;51878;55.748;48.742;2023-01-26T11:07:35;99294.28;;;-3.59;91.21
65280;BME280;51878;55.748;48.742;2023-01-26T11:12:47;99297.09;;;-3.62;91.32
65280;BME280;51878;55.748;48.742;2023-01-26T11:17:59;99296.56;;;-3.67;91.39
65280;BME280;51878;55.748;48.742;2023-01-26T11:36:41;99124.91;;;-4.82;92.43
65280;BME280;51878;55.748;48.742;2023-01-26T11:45:32;99298.97;;;-3.77;92.37
65280;BME280;51878;55.748;48.742;2023-01-26T11:51:02;99293.13;;;-3.82;93.55
65280;BME280;51878;55.748;48.742;2023-01-26T11:54:03;99298.91;;;-3.89;94.39
65280;BME280;51878;55.748;48.742;2023-01-26T11:56:55;99302.03;;;-3.83;93.03
65280;BME280;51878;55.748;48.742;2023-01-26T11:59:44;99260.88;;;-4.16;93.43
65280;BME280;51878;55.748;48.742;2023-01-26T12:04:44;99304.06;;;-4.01;93.52
65280;BME280;51878;55.748;48.742;2023-01-26T12:07:22;99271.38;;;-4.14;94.19
65280;BME280;51878;55.748;48.742;2023-01-26T12:09:53;99294.69;;;-4.06;94.47
65280;BME280;51878;55.748;48.742;2023-01-26T12:14:59;99260.34;;;-4.35;94.21
65280;BME280;51878;55.748;48.742;2023-01-26T12:23:04;99291.66;;;-4.00;94.36
65280;BME280;51878;55.748;48.742;2023-01-26T12:25:38;99285.22;;;-3.96;93.46
65280;BME280;51878;55.748;48.742;2023-01-26T12:31:45;99300.38;;;-3.98;92.14
65280;BME280;51878;55.748;48.742;2023-01-26T12:34:12;99198.22;;;-4.57;92.88
65280;BME280;51878;55.748;48.742;2023-01-26T12:40:19;99272.91;;;-4.24;92.96
65280;BME280;51878;55.748;48.742;2023-01-26T12:42:55;99294.25;;;-4.13;91.89
65280;BME280;51878;55.748;48.742;2023-01-26T12:45:28;99263.38;;;-4.41;92.53
65280;BME280;51878;55.748;48.742;2023-01-26T12:51:34;99196.06;;;-4.79;91.64
65280;BME280;51878;55.748;48.742;2023-01-26T12:54:21;99280.09;;;-4.26;92.47
65280;BME280;51878;55.748;48.742;2023-01-26T12:56:55;99267.19;;;-4.45;91.66
65280;BME280;51878;55.748;48.742;2023-01-26T12:59:34;99297.78;;;-4.27;91.32
65280;BME280;51878;55.748;48.742;2023-01-26T13:02:28;99298.53;;;-4.25;91.33
65280;BME280;51878;55.748;48.742;2023-01-26T13:05:01;99246.13;;;-4.61;91.09
65280;BME280;51878;55.748;48.742;2023-01-26T13:07:36;99240.19;;;-4.65;90.98
65280;BME280;51878;55.748;48.742;2023-01-26T13:15:18;99229.13;;;-4.86;90.01
65280;BME280;51878;55.748;48.742;2023-01-26T13:23:42;99296.00;;;-4.41;89.34
65280;BME280;51878;55.748;48.742;2023-01-26T13:34:44;99286.53;;;-4.59;89.30
65280;BME280;51878;55.748;48.742;2023-01-26T13:37:18;99314.41;;;-4.39;89.43
65280;BME280;51878;55.748;48.742;2023-01-26T13:39:54;99294.19;;;-4.54;89.65
65280;BME280;51878;55.748;48.742;2023-01-26T13:42:30;99307.13;;;-4.50;89.47
65280;BME280;51878;55.748;48.742;2023-01-26T13:45:21;99316.69;;;-4.47;90.05
65280;BME280;51878;55.748;48.742;2023-01-26T13:47:55;99319.34;;;-4.47;89.69
65280;BME280;51878;55.748;48.742;2023-01-26T13:50:33;99297.78;;;-4.55;90.08
65280;BME280;51878;55.748;48.742;2023-01-26T13:53:00;99298.09;;;-4.60;89.12
65280;BME280;51878;55.748;48.742;2023-01-26T13:55:31;99306.47;;;-4.53;89.80
65280;BME280;51878;55.748;48.742;2023-01-26T13:58:12;99328.13;;;-4.47;89.45
65280;BME280;51878;55.748;48.742;2023-01-26T14:00:39;99279.56;;;-4.74;89.27
65280;BME280;51878;55.748;48.742;2023-01-26T14:03:22;99309.88;;;-4.51;88.28
65280;BME280;51878;55.748;48.742;2023-01-26T14:06:13;99317.16;;;-4.55;88.84
65280;BME280;51878;55.748;48.742;2023-01-26T14:08:48;99308.53;;;-4.59;88.10
65280;BME280;51878;55.748;48.742;2023-01-26T14:11:22;99310.47;;;-4.61;88.50
65280;BME280;51878;55.748;48.742;2023-01-26T14:13:56;99328.28;;;-4.50;88.38
65280;BME280;51878;55.748;48.742;2023-01-26T14:16:35;99331.81;;;-4.49;89.06
65280;BME280;51878;55.748;48.742;2023-01-26T14:19:21;99305.25;;;-4.62;88.31
65280;BME280;51878;55.748;48.742;2023-01-26T14:21:57;99229.03;;;-5.13;88.68
65280;BME280;51878;55.748;48.742;2023-01-26T14:24:36;99290.03;;;-4.87;88.40
65280;BME280;51878;55.748;48.742;2023-01-26T14:29:59;99326.22;;;-4.59;87.95
65280;BME280;51878;55.748;48.742;2023-01-26T14:32:29;99348.59;;;-4.50;87.11
65280;BME280;51878;55.748;48.742;2023-01-26T14:34:58;99329.69;;;-4.59;87.40
65280;BME280;51878;55.748;48.742;2023-01-26T14:37:27;99319.31;;;-4.62;87.69
65280;BME280;51878;55.748;48.742;2023-01-26T14:40:17;99334.34;;;-4.48;86.56
65280;BME280;51878;55.748;48.742;2023-01-26T14:42:47;99267.38;;;-4.91;85.97
65280;BME280;51878;55.748;48.742;2023-01-26T14:45:16;99335.22;;;-4.47;86.28
65280;BME280;51878;55.748;48.742;2023-01-26T14:47:43;99336.06;;;-4.47;86.31
65280;BME280;51878;55.748;48.742;2023-01-26T14:50:24;99263.09;;;-4.94;85.67
65280;BME280;51878;55.748;48.742;2023-01-26T14:53:17;99288.13;;;-4.85;85.77
65280;BME280;51878;55.748;48.742;2023-01-26T14:55:46;99335.09;;;-4.46;85.50
65280;BME280;51878;55.748;48.742;2023-01-26T14:58:33;99352.69;;;-4.45;85.39